createdAt,value
2017-11-26T00:00:22.032Z,3.50
2017-11-26T00:02:49.719Z,3.60
2017-11-26T00:05:17.343Z,3.60
2017-11-26T00:07:44.977Z,3.60
2017-11-26T00:10:13.372Z,3.60
2017-11-26T00:12:41.001Z,3.60
2017-11-26T00:15:08.637Z,3.70
2017-11-26T00:17:36.223Z,3.60
2017-11-26T00:20:04.631Z,3.50
2017-11-26T00:22:32.244Z,3.50
2017-11-26T00:24:59.849Z,3.50
2017-11-26T00:27:28.216Z,3.60
2017-11-26T00:29:56.611Z,3.60
2017-11-26T00:32:24.967Z,3.50
2017-11-26T00:34:53.379Z,3.60
2017-11-26T00:37:20.971Z,3.50
2017-11-26T00:39:48.640Z,3.60
2017-11-26T00:42:16.243Z,3.50
2017-11-26T00:44:44.656Z,3.50
2017-11-26T00:47:12.279Z,3.50
2017-11-26T00:49:40.638Z,3.60
2017-11-26T00:52:08.249Z,3.60
2017-11-26T00:54:35.855Z,3.60
2017-11-26T00:57:03.492Z,3.50
2017-11-26T00:59:31.859Z,3.60
2017-11-26T01:01:59.469Z,3.50
2017-11-26T01:04:27.834Z,3.30
2017-11-26T01:06:55.417Z,3.30
2017-11-26T01:09:23.805Z,3.30
2017-11-26T01:11:51.411Z,3.30
2017-11-26T01:14:19.038Z,3.30
2017-11-26T01:16:46.617Z,3.20
2017-11-26T01:19:14.220Z,3.20
2017-11-26T01:21:41.816Z,3.30
2017-11-26T01:24:09.413Z,3.30
2017-11-26T01:26:37.002Z,3.30
2017-11-26T01:29:04.597Z,3.30
2017-11-26T01:31:32.244Z,3.30
2017-11-26T01:34:00.639Z,3.10
2017-11-26T01:36:28.231Z,3.10
2017-11-26T01:38:55.826Z,3.00
2017-11-26T01:41:24.191Z,3.00
2017-11-26T01:43:51.787Z,2.90
2017-11-26T01:46:19.375Z,3.10
2017-11-26T01:48:46.969Z,3.10
2017-11-26T01:51:14.567Z,3.00
2017-11-26T01:53:42.246Z,3.00
2017-11-26T01:56:09.816Z,2.90
2017-11-26T01:58:37.444Z,2.80
2017-11-26T02:01:05.107Z,2.90
2017-11-26T02:03:32.702Z,2.80
2017-11-26T02:06:00.301Z,2.90
2017-11-26T02:08:27.923Z,2.90
2017-11-26T02:10:55.520Z,3.00
2017-11-26T02:13:23.106Z,3.10
2017-11-26T02:15:51.597Z,2.90
2017-11-26T02:18:19.183Z,2.90
2017-11-26T02:20:46.787Z,2.90
2017-11-26T02:23:14.430Z,2.90
2017-11-26T02:25:42.034Z,2.90
2017-11-26T02:28:09.625Z,2.90
2017-11-26T02:30:37.241Z,2.90
2017-11-26T02:33:17.391Z,2.80
2017-11-26T02:35:56.594Z,2.80
2017-11-26T02:38:24.179Z,2.80
2017-11-26T02:40:51.798Z,2.80
2017-11-26T02:43:19.388Z,2.80
2017-11-26T02:45:47.008Z,2.70
2017-11-26T02:48:14.596Z,2.80
2017-11-26T02:50:42.303Z,2.80
2017-11-26T02:53:09.897Z,2.70
2017-11-26T02:55:37.495Z,2.70
2017-11-26T02:58:05.082Z,2.80
2017-11-26T03:00:32.675Z,2.70
2017-11-26T03:03:00.269Z,2.70
2017-11-26T03:05:27.924Z,2.70
2017-11-26T03:07:55.533Z,2.70
2017-11-26T03:10:23.169Z,2.80
2017-11-26T03:12:51.538Z,2.70
2017-11-26T03:15:19.116Z,2.70
2017-11-26T03:17:47.515Z,2.70
2017-11-26T03:20:15.105Z,2.70
2017-11-26T03:22:42.690Z,2.60
2017-11-26T03:25:10.287Z,2.60
2017-11-26T03:27:39.377Z,2.40
2017-11-26T03:30:07.021Z,2.40
2017-11-26T03:32:35.368Z,2.60
2017-11-26T03:35:02.963Z,2.60
2017-11-26T03:37:31.319Z,2.70
2017-11-26T03:39:58.929Z,2.60
2017-11-26T03:42:26.507Z,2.60
2017-11-26T03:44:54.124Z,2.70
2017-11-26T03:47:22.488Z,2.60
2017-11-26T03:49:50.101Z,2.50
2017-11-26T03:52:17.692Z,2.60
2017-11-26T03:54:45.282Z,2.80
2017-11-26T03:57:13.708Z,2.90
2017-11-26T03:59:41.303Z,2.80
2017-11-26T04:02:08.916Z,2.60
2017-11-26T04:04:36.530Z,2.50
2017-11-26T04:07:04.131Z,2.60
2017-11-26T04:11:56.292Z,2.80
2017-11-26T04:14:24.659Z,2.70
2017-11-26T04:16:52.255Z,2.70
2017-11-26T04:19:19.872Z,2.70
2017-11-26T04:21:47.475Z,2.80
2017-11-26T04:24:15.085Z,2.80
2017-11-26T04:26:42.688Z,2.80
2017-11-26T04:29:11.071Z,3.00
2017-11-26T04:31:39.439Z,3.00
2017-11-26T04:34:07.823Z,3.00
2017-11-26T04:36:36.188Z,3.00
2017-11-26T04:39:04.619Z,3.00
2017-11-26T04:41:32.279Z,3.00
2017-11-26T04:43:59.876Z,3.00
2017-11-26T04:46:27.463Z,3.00
2017-11-26T04:48:55.855Z,3.00
2017-11-26T04:51:24.280Z,2.90
2017-11-26T04:53:51.892Z,2.90
2017-11-26T04:56:20.255Z,2.80
2017-11-26T04:58:47.840Z,2.80
2017-11-26T05:01:16.264Z,3.00
2017-11-26T05:03:43.879Z,3.00
2017-11-26T05:06:12.255Z,3.10
2017-11-26T05:08:40.618Z,3.20
2017-11-26T05:11:08.219Z,3.20
2017-11-26T05:13:35.787Z,3.20
2017-11-26T05:16:03.406Z,3.20
2017-11-26T05:18:31.002Z,3.20
2017-11-26T05:20:58.614Z,3.10
2017-11-26T05:23:26.202Z,3.00
2017-11-26T05:25:54.573Z,3.10
2017-11-26T05:28:22.167Z,3.10
2017-11-26T05:30:49.856Z,3.10
2017-11-26T05:33:17.716Z,3.00
2017-11-26T05:35:45.307Z,3.10
2017-11-26T05:38:12.911Z,3.10
2017-11-26T05:40:40.536Z,3.00
2017-11-26T05:43:08.139Z,2.90
2017-11-26T05:45:35.756Z,2.90
2017-11-26T05:48:03.351Z,3.00
2017-11-26T05:50:31.699Z,3.10
2017-11-26T05:52:59.311Z,3.00
2017-11-26T05:55:28.469Z,3.10
2017-11-26T05:57:56.055Z,3.10
2017-11-26T06:00:24.457Z,3.10
2017-11-26T06:02:52.076Z,3.10
2017-11-26T06:05:19.668Z,3.10
2017-11-26T06:07:47.270Z,3.00
2017-11-26T06:10:14.868Z,3.00
2017-11-26T06:12:43.269Z,3.00
2017-11-26T06:15:11.642Z,3.00
2017-11-26T06:17:39.240Z,3.00
2017-11-26T06:20:06.876Z,3.00
2017-11-26T06:22:34.496Z,3.00
2017-11-26T06:25:02.096Z,3.10
2017-11-26T06:27:29.706Z,3.20
2017-11-26T06:29:57.303Z,3.00
2017-11-26T06:32:25.673Z,2.90
2017-11-26T06:34:53.287Z,2.90
2017-11-26T06:37:20.880Z,3.00
2017-11-26T06:39:48.566Z,3.00
2017-11-26T06:42:16.946Z,3.00
2017-11-26T06:44:45.331Z,3.10
2017-11-26T06:47:13.764Z,3.00
2017-11-26T06:49:41.366Z,3.10
2017-11-26T06:52:09.835Z,3.10
2017-11-26T06:54:37.429Z,3.00
2017-11-26T06:57:05.024Z,3.00
2017-11-26T06:59:32.667Z,2.90
2017-11-26T07:02:01.056Z,2.90
2017-11-26T07:04:28.640Z,2.90
2017-11-26T07:06:56.264Z,3.00
2017-11-26T07:09:23.868Z,3.10
2017-11-26T07:11:51.495Z,3.10
2017-11-26T07:14:19.132Z,3.00
2017-11-26T07:16:47.494Z,2.90
2017-11-26T07:19:15.128Z,2.90
2017-11-26T07:21:42.715Z,3.00
2017-11-26T07:24:10.334Z,3.00
2017-11-26T07:26:37.929Z,2.90
2017-11-26T07:29:05.631Z,3.00
2017-11-26T07:31:33.985Z,3.10
2017-11-26T07:34:01.566Z,3.00
2017-11-26T07:36:29.940Z,3.00
2017-11-26T07:38:58.299Z,3.00
2017-11-26T07:41:25.936Z,3.00
2017-11-26T07:43:53.550Z,3.00
2017-11-26T07:46:21.946Z,2.90
2017-11-26T07:48:49.586Z,2.80
2017-11-26T07:51:17.988Z,2.90
2017-11-26T07:53:45.575Z,2.90
2017-11-26T07:56:13.199Z,2.90
2017-11-26T07:58:41.678Z,2.90
2017-11-26T08:01:10.062Z,2.90
2017-11-26T08:03:38.468Z,2.90
2017-11-26T08:06:06.098Z,2.80
2017-11-26T08:08:34.492Z,2.90
2017-11-26T08:11:03.417Z,2.90
2017-11-26T08:13:31.489Z,2.90
2017-11-26T08:15:59.111Z,3.00
2017-11-26T08:18:27.567Z,3.00
2017-11-26T08:20:55.172Z,3.00
2017-11-26T08:23:22.815Z,3.00
2017-11-26T08:25:51.176Z,3.10
2017-11-26T08:28:18.789Z,3.00
2017-11-26T08:30:46.415Z,3.00
2017-11-26T08:33:14.818Z,3.00
2017-11-26T08:35:42.440Z,3.00
2017-11-26T08:38:10.052Z,3.00
2017-11-26T08:40:38.555Z,3.00
2017-11-26T08:43:06.187Z,3.00
2017-11-26T08:45:33.794Z,2.90
2017-11-26T08:48:01.447Z,3.00
2017-11-26T08:50:29.071Z,2.90
2017-11-26T08:52:56.678Z,3.00
2017-11-26T08:55:24.290Z,3.00
2017-11-26T08:57:51.947Z,3.00
2017-11-26T09:00:20.367Z,3.20
2017-11-26T09:02:47.961Z,3.20
2017-11-26T09:05:16.160Z,3.20
2017-11-26T09:07:44.554Z,3.30
2017-11-26T09:10:12.968Z,3.20
2017-11-26T09:12:40.606Z,3.20
2017-11-26T09:15:08.210Z,3.20
2017-11-26T09:17:35.842Z,3.30
2017-11-26T09:20:03.476Z,3.30
2017-11-26T09:22:31.862Z,3.30
2017-11-26T09:24:59.531Z,3.30
2017-11-26T09:27:27.131Z,3.30
2017-11-26T09:29:54.775Z,3.40
2017-11-26T09:32:22.419Z,3.50
2017-11-26T09:34:50.042Z,3.50
2017-11-26T09:37:17.658Z,3.40
2017-11-26T09:39:45.272Z,3.50
2017-11-26T09:42:12.877Z,3.40
2017-11-26T09:44:40.684Z,3.50
2017-11-26T09:47:08.302Z,3.40
2017-11-26T09:49:35.933Z,3.30
2017-11-26T09:52:04.347Z,3.20
2017-11-26T09:54:31.929Z,3.20
2017-11-26T09:56:59.550Z,3.30
2017-11-26T09:59:27.900Z,3.40
2017-11-26T10:01:55.499Z,3.40
2017-11-26T10:04:23.884Z,3.50
2017-11-26T10:06:51.480Z,3.50
2017-11-26T10:09:19.136Z,3.60
2017-11-26T10:11:46.834Z,3.50
2017-11-26T10:14:14.452Z,3.60
2017-11-26T10:16:42.062Z,3.60
2017-11-26T10:19:10.484Z,3.70
2017-11-26T10:21:38.087Z,3.70
2017-11-26T10:24:05.732Z,3.80
2017-11-26T10:26:33.343Z,3.90
2017-11-26T10:29:01.781Z,4.10
2017-11-26T10:31:30.164Z,4.10
2017-11-26T10:33:57.807Z,4.10
2017-11-26T10:36:25.432Z,4.00
2017-11-26T10:38:53.830Z,4.00
2017-11-26T10:41:21.461Z,3.90
2017-11-26T10:43:49.095Z,3.90
2017-11-26T10:46:16.734Z,3.90
2017-11-26T10:48:44.303Z,3.80
2017-11-26T10:51:11.892Z,3.80
2017-11-26T10:53:39.508Z,3.80
2017-11-26T10:56:08.031Z,3.80
2017-11-26T10:58:35.637Z,4.00
2017-11-26T11:01:04.010Z,3.90
2017-11-26T11:03:32.386Z,4.00
2017-11-26T11:06:00.756Z,3.90
2017-11-26T11:08:28.347Z,3.90
2017-11-26T11:10:55.945Z,4.00
2017-11-26T11:13:23.621Z,4.00
2017-11-26T11:15:51.212Z,4.10
2017-11-26T11:18:19.607Z,4.10
2017-11-26T11:20:47.952Z,4.00
2017-11-26T11:23:15.543Z,3.90
2017-11-26T11:25:43.995Z,4.00
2017-11-26T11:28:12.384Z,4.10
2017-11-26T11:30:39.990Z,4.00
2017-11-26T11:33:09.405Z,4.00
2017-11-26T11:35:37.055Z,4.00
2017-11-26T11:38:04.651Z,4.00
2017-11-26T11:40:32.269Z,4.10
2017-11-26T11:43:00.631Z,3.90
2017-11-26T11:45:29.021Z,3.80
2017-11-26T11:47:57.404Z,3.80
2017-11-26T11:50:25.780Z,3.70
2017-11-26T11:52:54.625Z,3.70
2017-11-26T11:55:22.221Z,3.70
2017-11-26T11:57:50.598Z,3.80
2017-11-26T12:00:18.942Z,3.90
2017-11-26T12:02:46.564Z,3.90
2017-11-26T12:05:14.170Z,3.90
2017-11-26T12:07:41.832Z,3.90
2017-11-26T12:10:09.912Z,3.90
2017-11-26T12:12:37.535Z,4.00
2017-11-26T12:15:05.119Z,4.00
2017-11-26T12:17:32.694Z,4.00
2017-11-26T12:20:00.324Z,4.00
2017-11-26T12:22:28.223Z,3.90
2017-11-26T12:24:55.851Z,3.90
2017-11-26T12:27:23.437Z,4.00
2017-11-26T12:29:51.051Z,4.10
2017-11-26T12:32:19.407Z,4.10
2017-11-26T12:34:47.074Z,4.10
2017-11-26T12:37:14.708Z,4.20
2017-11-26T12:39:42.280Z,4.20
2017-11-26T12:42:09.919Z,4.30
2017-11-26T12:44:37.504Z,4.30
2017-11-26T12:47:05.120Z,4.40
2017-11-26T12:49:32.738Z,4.40
2017-11-26T12:52:00.351Z,4.40
2017-11-26T12:54:27.999Z,4.40
2017-11-26T12:56:55.635Z,4.40
2017-11-26T12:59:23.217Z,4.40
2017-11-26T13:01:51.609Z,4.40
2017-11-26T13:04:19.229Z,4.30
2017-11-26T13:06:47.637Z,4.30
2017-11-26T13:09:15.997Z,4.30
2017-11-26T13:11:43.610Z,4.30
2017-11-26T13:14:11.200Z,4.30
2017-11-26T13:16:38.871Z,4.20
2017-11-26T13:19:06.472Z,3.50
2017-11-26T13:21:34.162Z,2.70
2017-11-26T13:24:01.760Z,2.30
2017-11-26T13:26:29.343Z,2.10
2017-11-26T13:28:57.739Z,2.10
2017-11-26T13:31:26.145Z,2.10
2017-11-26T13:33:53.753Z,2.10
2017-11-26T13:36:21.331Z,2.20
2017-11-26T13:38:49.772Z,2.40
2017-11-26T13:41:17.363Z,2.40
2017-11-26T13:43:44.977Z,2.50
2017-11-26T13:46:12.647Z,2.60
2017-11-26T13:48:40.267Z,2.60
2017-11-26T13:51:08.688Z,2.50
2017-11-26T13:53:36.309Z,2.50
2017-11-26T13:56:04.028Z,2.50
2017-11-26T13:58:32.403Z,2.60
2017-11-26T14:01:00.039Z,2.60
2017-11-26T14:03:27.628Z,2.60
2017-11-26T14:05:55.576Z,2.60
2017-11-26T14:08:23.282Z,2.50
2017-11-26T14:10:50.952Z,2.60
2017-11-26T14:13:18.570Z,2.50
2017-11-26T14:15:46.162Z,2.60
2017-11-26T14:18:13.868Z,2.60
2017-11-26T14:20:42.328Z,2.80
2017-11-26T14:23:09.942Z,2.80
2017-11-26T14:25:37.553Z,2.80
2017-11-26T14:28:05.233Z,2.80
2017-11-26T14:30:33.588Z,2.80
2017-11-26T14:33:01.238Z,2.70
2017-11-26T14:35:29.209Z,2.80
2017-11-26T14:37:56.932Z,2.80
2017-11-26T14:40:24.598Z,2.80
2017-11-26T14:42:52.328Z,2.80
2017-11-26T14:45:20.777Z,2.80
2017-11-26T14:47:48.381Z,2.70
2017-11-26T14:50:16.795Z,3.00
2017-11-26T14:52:44.420Z,3.00
2017-11-26T14:55:12.799Z,3.10
2017-11-26T14:57:40.399Z,3.10
2017-11-26T15:00:08.007Z,3.00
2017-11-26T15:02:35.613Z,3.00
2017-11-26T15:05:03.239Z,2.90
2017-11-26T15:07:31.623Z,2.90
2017-11-26T15:09:59.994Z,2.90
2017-11-26T15:12:27.583Z,2.90
2017-11-26T15:14:55.232Z,3.00
2017-11-26T15:17:23.604Z,3.00
2017-11-26T15:19:51.972Z,3.00
2017-11-26T15:22:19.558Z,3.00
2017-11-26T15:24:47.203Z,3.00
2017-11-26T15:27:15.702Z,3.10
2017-11-26T15:29:44.396Z,3.10
2017-11-26T15:32:13.213Z,3.10
2017-11-26T15:34:41.062Z,3.10
2017-11-26T15:37:08.677Z,3.20
2017-11-26T15:39:36.300Z,3.10
2017-11-26T15:42:03.925Z,3.10
2017-11-26T15:44:32.270Z,3.20
2017-11-26T15:46:59.904Z,3.20
2017-11-26T15:49:27.515Z,3.20
2017-11-26T15:51:55.128Z,3.20
2017-11-26T15:54:22.767Z,3.20
2017-11-26T15:56:51.444Z,3.20
2017-11-26T15:59:19.838Z,3.10
2017-11-26T16:01:48.203Z,3.10
2017-11-26T16:04:16.556Z,3.00
2017-11-26T16:06:44.171Z,3.00
2017-11-26T16:09:11.811Z,3.00
2017-11-26T16:11:40.189Z,3.10
2017-11-26T16:14:08.610Z,3.00
2017-11-26T16:16:36.212Z,3.00
2017-11-26T16:19:03.843Z,3.00
2017-11-26T16:21:31.455Z,3.00
2017-11-26T16:23:59.860Z,3.10
2017-11-26T16:26:27.656Z,3.00
2017-11-26T16:28:55.276Z,3.10
2017-11-26T16:31:22.895Z,3.10
2017-11-26T16:33:50.524Z,3.10
2017-11-26T16:36:18.167Z,3.10
2017-11-26T16:38:45.807Z,2.90
2017-11-26T16:41:13.449Z,2.90
2017-11-26T16:43:41.048Z,2.90
2017-11-26T16:46:09.428Z,3.00
2017-11-26T16:48:37.799Z,3.00
2017-11-26T16:51:06.188Z,3.00
2017-11-26T16:53:34.568Z,3.00
2017-11-26T16:56:02.952Z,3.00
2017-11-26T16:58:31.372Z,2.90
2017-11-26T17:00:59.005Z,2.80
2017-11-26T17:03:26.616Z,3.00
2017-11-26T17:05:54.224Z,3.00
2017-11-26T17:08:21.837Z,2.80
2017-11-26T17:10:49.451Z,2.70
2017-11-26T17:13:17.094Z,2.60
2017-11-26T17:15:45.466Z,2.50
2017-11-26T17:18:13.867Z,2.50
2017-11-26T17:20:42.230Z,2.40
2017-11-26T17:23:10.626Z,2.40
2017-11-26T17:25:38.970Z,2.60
2017-11-26T17:28:06.605Z,2.50
2017-11-26T17:30:34.221Z,2.70
2017-11-26T17:33:02.614Z,2.80
2017-11-26T17:35:31.623Z,2.80
2017-11-26T17:37:59.276Z,2.80
2017-11-26T17:40:26.941Z,2.70
2017-11-26T17:42:54.585Z,2.80
2017-11-26T17:45:22.983Z,2.80
2017-11-26T17:47:50.632Z,2.80
2017-11-26T17:50:19.009Z,2.60
2017-11-26T17:52:47.365Z,2.80
2017-11-26T17:55:16.071Z,2.80
2017-11-26T17:57:44.450Z,2.90
2017-11-26T18:00:12.835Z,2.90
2017-11-26T18:02:41.214Z,3.00
2017-11-26T18:05:09.621Z,3.00
2017-11-26T18:07:37.245Z,3.00
2017-11-26T18:10:04.861Z,3.10
2017-11-26T18:12:32.507Z,3.00
2017-11-26T18:15:00.191Z,2.90
2017-11-26T18:17:27.820Z,3.00
2017-11-26T18:19:55.447Z,3.10
2017-11-26T18:22:23.056Z,3.20
2017-11-26T18:24:50.678Z,3.30
2017-11-26T18:27:18.469Z,3.20
2017-11-26T18:29:46.096Z,3.30
2017-11-26T18:32:13.731Z,3.20
2017-11-26T18:34:41.332Z,3.20
2017-11-26T18:37:08.980Z,3.20
2017-11-26T18:39:36.591Z,3.10
2017-11-26T18:42:04.221Z,3.20
2017-11-26T18:44:31.909Z,3.20
2017-11-26T18:46:59.597Z,3.10
2017-11-26T18:49:27.251Z,3.20
2017-11-26T18:51:54.949Z,3.10
2017-11-26T18:54:22.548Z,3.10
2017-11-26T18:56:50.931Z,3.00
2017-11-26T18:59:19.348Z,3.00
2017-11-26T19:01:47.464Z,3.00
2017-11-26T19:04:15.122Z,2.90
2017-11-26T19:06:42.773Z,2.90
2017-11-26T19:09:10.423Z,3.00
2017-11-26T19:11:38.097Z,3.00
2017-11-26T19:14:05.864Z,3.00
2017-11-26T19:16:33.762Z,3.10
2017-11-26T19:19:01.457Z,3.10
2017-11-26T19:21:29.135Z,3.10
2017-11-26T19:23:56.760Z,3.10
2017-11-26T19:26:26.557Z,3.00
2017-11-26T19:28:54.163Z,3.00
2017-11-26T19:31:21.818Z,2.90
2017-11-26T19:33:49.475Z,3.00
2017-11-26T19:36:17.110Z,3.00
2017-11-26T19:38:44.808Z,2.90
2017-11-26T19:41:12.428Z,2.90
2017-11-26T19:43:40.064Z,2.90
2017-11-26T19:46:07.663Z,2.80
2017-11-26T19:48:35.265Z,2.90
2017-11-26T19:51:02.857Z,2.80
2017-11-26T19:53:30.488Z,2.90
2017-11-26T19:55:58.081Z,2.80
2017-11-26T19:58:27.467Z,2.80
2017-11-26T20:00:55.176Z,2.70
2017-11-26T20:03:22.863Z,2.70
2017-11-26T20:05:50.522Z,2.80
2017-11-26T20:08:18.937Z,2.80
2017-11-26T20:10:46.574Z,2.70
2017-11-26T20:13:14.954Z,2.70
2017-11-26T20:15:42.691Z,2.70
2017-11-26T20:18:10.363Z,2.70
2017-11-26T20:20:38.778Z,2.70
2017-11-26T20:23:06.413Z,2.70
2017-11-26T20:25:34.814Z,2.80
2017-11-26T20:28:02.429Z,2.70
2017-11-26T20:30:30.074Z,2.80
2017-11-26T20:32:57.693Z,2.70
2017-11-26T20:35:26.077Z,2.60
2017-11-26T20:37:53.722Z,2.60
2017-11-26T20:40:22.096Z,2.90
2017-11-26T20:42:50.497Z,2.90
2017-11-26T20:45:18.877Z,3.00
2017-11-26T20:47:47.259Z,2.90
2017-11-26T20:50:15.632Z,2.90
2017-11-26T20:52:44.523Z,2.90
2017-11-26T20:55:12.136Z,2.90
2017-11-26T20:57:39.778Z,2.90
2017-11-26T21:00:07.388Z,3.00
2017-11-26T21:02:35.020Z,3.00
2017-11-26T21:05:02.867Z,3.00
2017-11-26T21:07:30.825Z,3.00
2017-11-26T21:09:58.727Z,3.00
2017-11-26T21:12:27.403Z,2.90
2017-11-26T21:14:55.381Z,2.90
2017-11-26T21:17:24.059Z,3.00
2017-11-26T21:19:51.976Z,2.90
2017-11-26T21:22:19.896Z,3.00
2017-11-26T21:24:49.351Z,2.90
2017-11-26T21:27:18.114Z,3.10
2017-11-26T21:29:46.836Z,3.10
2017-11-26T21:32:14.734Z,3.10
2017-11-26T21:34:42.649Z,3.10
2017-11-26T21:37:10.536Z,3.20
2017-11-26T21:39:38.467Z,3.20
2017-11-26T21:42:06.372Z,3.30
2017-11-26T21:44:34.316Z,3.30
2017-11-26T21:47:03.000Z,3.30
2017-11-26T21:49:31.695Z,3.20
2017-11-26T21:52:00.368Z,3.30
2017-11-26T21:54:29.044Z,3.20
2017-11-26T21:56:56.954Z,3.20
2017-11-26T21:59:24.907Z,3.30
2017-11-26T22:01:52.803Z,3.10
2017-11-26T22:04:20.733Z,3.20
2017-11-26T22:06:49.386Z,3.30
2017-11-26T22:09:17.289Z,3.20
2017-11-26T22:11:45.725Z,3.20
2017-11-26T22:14:13.349Z,3.20
2017-11-26T22:16:40.925Z,3.30
2017-11-26T22:19:09.304Z,3.20
2017-11-26T22:21:36.918Z,3.20
2017-11-26T22:24:04.607Z,3.00
2017-11-26T22:26:32.233Z,3.00
2017-11-26T22:28:59.859Z,2.80
2017-11-26T22:31:28.293Z,2.90
2017-11-26T22:33:55.912Z,2.80
2017-11-26T22:36:24.303Z,2.70
2017-11-26T22:38:53.646Z,2.60
2017-11-26T22:41:21.305Z,2.70
2017-11-26T22:43:48.931Z,2.90
2017-11-26T22:46:16.527Z,2.90
2017-11-26T22:48:44.179Z,2.80
2017-11-26T22:51:12.525Z,2.80
2017-11-26T22:53:40.932Z,2.80
2017-11-26T22:56:08.535Z,2.80
2017-11-26T22:58:36.219Z,2.70
2017-11-26T23:01:04.599Z,2.90
2017-11-26T23:03:32.973Z,3.10
2017-11-26T23:06:00.650Z,3.00
2017-11-26T23:08:29.020Z,3.10
2017-11-26T23:10:58.256Z,3.10
2017-11-26T23:13:25.852Z,3.10
2017-11-26T23:15:54.231Z,3.20
2017-11-26T23:18:21.839Z,3.20
2017-11-26T23:20:50.213Z,3.20
2017-11-26T23:23:18.600Z,3.20
2017-11-26T23:25:46.983Z,3.30
2017-11-26T23:28:14.631Z,3.20
2017-11-26T23:30:43.025Z,3.40
2017-11-26T23:33:11.399Z,3.40
2017-11-26T23:35:39.833Z,3.30
2017-11-26T23:38:07.444Z,3.30
2017-11-26T23:40:35.815Z,3.30
2017-11-26T23:43:04.191Z,3.30
2017-11-26T23:45:32.581Z,3.30
2017-11-26T23:48:01.051Z,3.20
2017-11-26T23:50:28.644Z,3.10
2017-11-26T23:52:56.260Z,3.20
2017-11-26T23:55:23.953Z,3.10
2017-11-26T23:57:52.324Z,3.20
